createdAt,value
2023-04-26T00:00:26.793Z,1000.00
2023-04-26T00:01:26.796Z,1000.00
2023-04-26T00:02:26.982Z,1000.00
2023-04-26T00:03:26.995Z,1000.00
2023-04-26T00:04:27.170Z,1000.00
2023-04-26T00:05:26.987Z,1000.00
2023-04-26T00:06:26.962Z,1000.00
2023-04-26T00:07:27.001Z,1000.00
2023-04-26T00:08:26.981Z,1000.00
2023-04-26T00:09:27.015Z,1000.00
2023-04-26T00:10:27.065Z,1000.00
2023-04-26T00:11:27.107Z,1000.00
2023-04-26T00:12:27.161Z,1000.00
2023-04-26T00:13:27.205Z,1000.00
2023-04-26T00:14:27.280Z,1000.00
2023-04-26T00:15:27.318Z,1000.00
2023-04-26T00:16:27.436Z,1000.00
2023-04-26T00:17:27.434Z,1000.00
2023-04-26T00:18:27.495Z,1000.00
2023-04-26T00:19:27.572Z,1000.00
2023-04-26T00:20:27.620Z,1000.00
2023-04-26T00:21:27.686Z,1000.00
2023-04-26T00:22:27.703Z,1000.00
2023-04-26T00:23:27.773Z,1000.00
2023-04-26T00:24:27.818Z,1000.00
2023-04-26T00:25:27.899Z,1000.00
2023-04-26T00:26:27.950Z,1000.00
2023-04-26T00:27:28.001Z,1000.00
2023-04-26T00:28:28.085Z,1000.00
2023-04-26T00:29:28.127Z,1000.00
2023-04-26T00:30:28.170Z,1000.00
2023-04-26T00:31:28.261Z,1000.00
2023-04-26T00:32:28.325Z,1000.00
2023-04-26T00:33:28.375Z,1000.00
2023-04-26T00:34:28.426Z,1000.00
2023-04-26T00:35:28.484Z,1000.00
2023-04-26T00:36:28.528Z,1000.00
2023-04-26T00:37:28.608Z,1000.00
2023-04-26T00:38:28.747Z,1000.00
2023-04-26T00:39:28.714Z,1000.00
2023-04-26T00:40:28.805Z,1000.00
2023-04-26T00:41:28.863Z,1000.00
2023-04-26T00:42:28.893Z,1000.00
2023-04-26T00:43:28.956Z,1000.00
2023-04-26T00:44:29.004Z,1000.00
2023-04-26T00:45:29.094Z,1000.00
2023-04-26T00:46:29.210Z,1000.00
2023-04-26T00:47:29.185Z,1000.00
2023-04-26T00:48:29.220Z,1000.00
2023-04-26T00:49:29.213Z,1000.00
2023-04-26T00:50:29.257Z,1000.00
2023-04-26T00:51:29.309Z,1000.00
2023-04-26T00:52:29.334Z,1000.00
2023-04-26T00:53:29.436Z,1000.00
2023-04-26T00:54:29.475Z,1000.00
2023-04-26T00:55:29.556Z,1000.00
2023-04-26T00:56:29.576Z,1000.00
2023-04-26T00:57:29.607Z,1000.00
2023-04-26T00:58:29.655Z,1000.00
2023-04-26T00:59:29.675Z,1000.00
2023-04-26T01:00:29.729Z,1000.00
2023-04-26T01:33:15.441Z,0.50
2023-04-26T01:34:15.266Z,0.50
2023-04-26T01:35:15.447Z,0.50
2023-04-26T01:36:15.250Z,0.50
2023-04-26T01:37:15.247Z,0.50
2023-04-26T01:38:15.218Z,0.50
2023-04-26T01:39:15.232Z,0.50
2023-04-26T01:40:15.477Z,0.50
2023-04-26T01:41:15.197Z,0.50
2023-04-26T01:42:15.200Z,0.49
2023-04-26T01:43:15.202Z,0.50
2023-04-26T01:44:15.185Z,0.51
2023-04-26T01:45:15.446Z,0.50
2023-04-26T01:46:15.190Z,0.50
2023-04-26T01:47:15.182Z,0.49
2023-04-26T01:48:15.172Z,0.46
2023-04-26T01:49:15.174Z,0.49
2023-04-26T01:50:15.458Z,0.50
2023-04-26T01:51:15.141Z,0.51
2023-04-26T01:52:15.120Z,0.51
2023-04-26T01:53:15.122Z,0.53
2023-04-26T01:54:15.118Z,0.50
2023-04-26T01:55:15.449Z,0.50
2023-04-26T01:56:15.108Z,0.52
2023-04-26T01:57:15.093Z,0.55
2023-04-26T01:58:15.089Z,0.50
2023-04-26T01:59:15.070Z,0.50
2023-04-26T02:00:15.459Z,0.50
2023-04-26T02:01:15.153Z,0.50
2023-04-26T02:02:15.182Z,0.50
2023-04-26T02:03:15.473Z,0.50
2023-04-26T02:04:15.276Z,0.50
2023-04-26T02:05:15.381Z,0.49
2023-04-26T02:06:15.377Z,0.50
2023-04-26T02:07:15.427Z,0.50
2023-04-26T02:08:15.519Z,0.52
2023-04-26T02:09:15.531Z,0.52
2023-04-26T02:10:15.606Z,0.50
2023-04-26T02:11:15.662Z,0.52
2023-04-26T02:12:15.711Z,0.50
2023-04-26T02:13:15.772Z,0.50
2023-04-26T02:14:15.855Z,0.54
2023-04-26T02:15:15.870Z,0.57
2023-04-26T02:16:15.940Z,0.58
2023-04-26T02:17:15.927Z,0.57
2023-04-26T02:18:15.972Z,0.63
2023-04-26T02:19:16.016Z,0.73
2023-04-26T02:20:16.056Z,0.87
2023-04-26T02:21:16.064Z,1.12
2023-04-26T02:22:16.108Z,1.34
2023-04-26T02:23:16.141Z,1.49
2023-04-26T02:24:16.164Z,1.70
2023-04-26T02:25:16.223Z,1.74
2023-04-26T02:26:16.245Z,1.79
2023-04-26T02:27:16.282Z,1.79
2023-04-26T02:28:16.380Z,1.66
2023-04-26T02:29:16.371Z,1.67
2023-04-26T02:30:16.407Z,1.58
2023-04-26T02:31:16.494Z,1.54
2023-04-26T02:32:16.534Z,1.65
2023-04-26T02:33:16.597Z,1.69
2023-04-26T02:34:16.652Z,1.87
2023-04-26T02:35:16.707Z,2.01
2023-04-26T02:36:16.767Z,2.17
2023-04-26T02:37:16.803Z,2.36
2023-04-26T02:38:16.868Z,2.53
2023-04-26T02:39:16.912Z,2.60
2023-04-26T02:40:17.032Z,2.58
2023-04-26T02:41:17.017Z,2.53
2023-04-26T02:42:17.064Z,2.51
2023-04-26T02:43:17.120Z,2.46
2023-04-26T02:44:17.189Z,2.33
2023-04-26T02:45:17.237Z,2.29
2023-04-26T02:46:17.487Z,2.18
2023-04-26T02:47:17.268Z,2.13
2023-04-26T02:48:17.329Z,2.28
2023-04-26T02:49:17.362Z,2.37
2023-04-26T02:50:17.406Z,2.48
2023-04-26T02:51:17.439Z,2.46
2023-04-26T02:52:17.484Z,2.62
2023-04-26T02:53:17.552Z,2.32
2023-04-26T02:54:17.589Z,2.15
2023-04-26T02:55:17.613Z,2.19
2023-04-26T02:56:17.600Z,2.17
2023-04-26T02:57:17.639Z,2.02
2023-04-26T02:58:17.719Z,1.95
2023-04-26T02:59:17.748Z,1.93
2023-04-26T03:00:17.840Z,1.94
2023-04-26T03:01:17.921Z,1.69
2023-04-26T03:02:18.038Z,1.58
2023-04-26T03:03:18.230Z,1.53
2023-04-26T03:04:18.221Z,1.67
2023-04-26T03:05:18.131Z,1.81
2023-04-26T03:06:18.171Z,1.95
2023-04-26T03:07:18.237Z,1.85
2023-04-26T03:08:18.293Z,1.70
2023-04-26T03:09:18.342Z,1.55
2023-04-26T03:10:18.389Z,1.59
2023-04-26T03:11:18.418Z,1.70
2023-04-26T03:12:18.468Z,1.98
2023-04-26T03:13:18.505Z,2.24
2023-04-26T03:14:18.576Z,2.45
2023-04-26T03:15:18.589Z,2.67
2023-04-26T03:16:18.639Z,2.79
2023-04-26T03:17:18.685Z,2.84
2023-04-26T03:18:18.735Z,3.05
2023-04-26T03:19:18.801Z,3.18
2023-04-26T03:20:18.871Z,3.52
2023-04-26T03:21:18.901Z,3.39
2023-04-26T03:22:18.937Z,3.04
2023-04-26T03:23:18.956Z,2.09
2023-04-26T03:24:18.985Z,1.58
2023-04-26T03:25:19.010Z,1.12
2023-04-26T03:26:19.043Z,1.07
2023-04-26T03:27:19.080Z,1.29
2023-04-26T03:28:19.120Z,1.77
2023-04-26T03:29:19.126Z,2.30
2023-04-26T03:30:19.146Z,2.66
2023-04-26T03:31:19.217Z,2.50
2023-04-26T03:32:19.266Z,2.39
2023-04-26T03:33:19.252Z,2.81
2023-04-26T03:34:19.297Z,3.28
2023-04-26T03:35:19.328Z,3.42
2023-04-26T03:36:19.359Z,3.71
2023-04-26T03:37:19.386Z,4.18
2023-04-26T03:38:19.453Z,4.59
2023-04-26T03:39:19.493Z,4.61
2023-04-26T03:40:19.505Z,4.06
2023-04-26T03:41:19.538Z,3.84
2023-04-26T03:42:19.576Z,4.06
2023-04-26T03:43:19.590Z,4.44
2023-04-26T03:44:19.595Z,4.51
2023-04-26T03:45:19.633Z,4.47
2023-04-26T03:46:19.729Z,4.28
2023-04-26T03:47:19.691Z,3.99
2023-04-26T03:48:19.707Z,3.87
2023-04-26T03:49:19.746Z,3.67
2023-04-26T03:50:19.774Z,3.27
2023-04-26T03:51:19.782Z,3.95
2023-04-26T03:52:19.821Z,3.94
2023-04-26T03:53:19.870Z,3.35
2023-04-26T03:54:19.898Z,4.34
2023-04-26T03:55:19.941Z,4.80
2023-04-26T03:56:19.961Z,5.38
2023-04-26T03:57:19.983Z,6.48
2023-04-26T03:58:19.969Z,4.88
2023-04-26T03:59:19.966Z,2.87
2023-04-26T04:00:19.976Z,2.01
2023-04-26T04:01:19.982Z,1.67
2023-04-26T04:02:20.042Z,1.49
2023-04-26T04:03:20.144Z,1.43
2023-04-26T04:04:20.167Z,1.26
2023-04-26T04:05:20.016Z,1.20
2023-04-26T04:06:19.971Z,0.99
2023-04-26T04:07:19.992Z,0.86
2023-04-26T04:08:19.978Z,0.83
2023-04-26T04:09:19.975Z,0.76
2023-04-26T04:10:19.978Z,0.76
2023-04-26T04:11:19.972Z,0.85
2023-04-26T04:12:19.975Z,1.09
2023-04-26T04:13:19.982Z,1.34
2023-04-26T04:14:20.049Z,1.63
2023-04-26T04:15:20.037Z,1.87
2023-04-26T04:16:20.105Z,2.12
2023-04-26T04:17:20.021Z,1.81
2023-04-26T04:18:20.048Z,1.54
2023-04-26T04:19:20.030Z,1.56
2023-04-26T04:20:20.040Z,1.67
2023-04-26T04:21:20.061Z,1.71
2023-04-26T04:22:20.038Z,2.49
2023-04-26T04:23:20.066Z,2.88
2023-04-26T04:24:20.054Z,2.71
2023-04-26T04:25:20.086Z,2.61
2023-04-26T04:26:20.103Z,2.64
2023-04-26T04:27:20.131Z,2.64
2023-04-26T04:28:20.154Z,2.50
2023-04-26T04:29:20.180Z,2.41
2023-04-26T04:30:20.217Z,2.48
2023-04-26T04:31:20.318Z,2.79
2023-04-26T04:32:20.248Z,4.69
2023-04-26T04:33:20.311Z,8.44
2023-04-26T04:34:20.363Z,11.02
2023-04-26T04:35:20.393Z,11.38
2023-04-26T04:36:20.418Z,11.53
2023-04-26T04:37:20.463Z,10.32
2023-04-26T04:38:20.491Z,9.76
2023-04-26T04:39:20.508Z,9.50
2023-04-26T04:40:20.515Z,8.53
2023-04-26T04:41:20.530Z,7.85
2023-04-26T04:42:20.528Z,9.83
2023-04-26T04:43:20.517Z,18.28
2023-04-26T04:44:20.529Z,18.87
2023-04-26T04:45:20.576Z,15.64
2023-04-26T04:46:20.574Z,14.36
2023-04-26T04:47:20.539Z,12.56
2023-04-26T04:48:20.551Z,9.95
2023-04-26T04:49:20.532Z,9.36
2023-04-26T04:50:20.542Z,10.94
2023-04-26T04:51:20.552Z,13.82
2023-04-26T04:52:20.532Z,16.09
2023-04-26T04:53:20.548Z,16.43
2023-04-26T04:54:20.536Z,14.95
2023-04-26T04:55:20.544Z,14.53
2023-04-26T04:56:20.536Z,14.95
2023-04-26T04:57:20.514Z,16.27
2023-04-26T04:58:20.545Z,18.83
2023-04-26T04:59:20.563Z,22.04
2023-04-26T05:00:20.996Z,25.64
2023-04-26T05:01:20.554Z,26.96
2023-04-26T05:02:20.635Z,29.63
2023-04-26T05:03:20.740Z,32.20
2023-04-26T05:04:20.678Z,33.69
2023-04-26T05:05:20.583Z,38.39
2023-04-26T05:06:20.605Z,38.31
2023-04-26T05:07:20.677Z,40.71
2023-04-26T05:08:20.714Z,48.55
2023-04-26T05:09:20.761Z,95.55
2023-04-26T05:10:20.837Z,163.72
2023-04-26T05:11:20.868Z,275.11
2023-04-26T05:12:20.929Z,501.77
2023-04-26T05:13:20.988Z,664.32
2023-04-26T05:14:21.021Z,1000.00
2023-04-26T05:15:21.095Z,927.99
2023-04-26T05:16:21.159Z,771.14
2023-04-26T05:17:21.179Z,781.25
2023-04-26T05:18:21.237Z,908.13
2023-04-26T05:19:21.303Z,974.81
2023-04-26T05:20:21.390Z,1000.00
2023-04-26T05:21:21.407Z,977.38
2023-04-26T05:22:21.467Z,811.40
2023-04-26T05:23:21.505Z,776.00
2023-04-26T05:24:21.615Z,780.27
2023-04-26T05:25:22.579Z,659.46
2023-04-26T05:26:21.705Z,591.97
2023-04-26T05:27:21.718Z,448.88
2023-04-26T05:28:21.795Z,337.97
2023-04-26T05:29:21.910Z,264.21
2023-04-26T05:30:21.917Z,229.48
2023-04-26T05:31:21.974Z,205.83
2023-04-26T05:32:22.013Z,203.86
2023-04-26T05:33:22.076Z,227.17
2023-04-26T05:34:22.143Z,267.36
2023-04-26T05:35:22.201Z,297.99
2023-04-26T05:36:22.268Z,302.91
2023-04-26T05:37:22.309Z,327.19
2023-04-26T05:38:22.387Z,306.77
2023-04-26T05:39:22.462Z,276.43
2023-04-26T05:40:22.504Z,268.46
2023-04-26T05:41:22.522Z,219.53
2023-04-26T05:42:22.650Z,182.50
2023-04-26T05:43:22.656Z,147.95
2023-04-26T05:44:22.685Z,120.97
2023-04-26T05:45:22.764Z,120.86
2023-04-26T05:46:22.880Z,88.46
2023-04-26T05:47:22.788Z,91.45
2023-04-26T05:48:22.821Z,106.64
2023-04-26T05:49:22.848Z,109.90
2023-04-26T05:50:23.010Z,110.88
2023-04-26T05:51:22.870Z,92.18
2023-04-26T05:52:22.893Z,79.07
2023-04-26T05:53:22.918Z,81.09
2023-04-26T05:54:22.942Z,89.49
2023-04-26T05:55:22.970Z,96.08
2023-04-26T05:56:23.039Z,86.53
2023-04-26T05:57:23.084Z,76.37
2023-04-26T05:58:23.120Z,75.26
2023-04-26T05:59:23.148Z,71.49
2023-04-26T06:00:23.203Z,74.80
2023-04-26T06:01:23.237Z,90.17
2023-04-26T06:02:23.376Z,74.28
2023-04-26T06:03:23.443Z,69.28
2023-04-26T06:04:23.471Z,72.72
2023-04-26T06:05:23.546Z,75.20
2023-04-26T06:06:23.379Z,79.66
2023-04-26T06:07:23.528Z,92.19
2023-04-26T06:08:23.413Z,86.92
2023-04-26T06:09:23.432Z,77.49
2023-04-26T06:10:23.420Z,78.81
2023-04-26T06:11:23.432Z,83.61
2023-04-26T06:12:23.420Z,87.04
2023-04-26T06:13:23.447Z,95.32
2023-04-26T06:14:30.354Z,118.99
2023-04-26T06:15:24.518Z,119.67
2023-04-26T06:16:23.475Z,119.77
2023-04-26T06:17:23.533Z,109.22
2023-04-26T06:18:23.438Z,115.51
2023-04-26T06:19:23.416Z,135.56
2023-04-26T06:20:23.572Z,115.16
2023-04-26T06:21:23.393Z,81.51
2023-04-26T06:22:23.399Z,58.72
2023-04-26T06:23:23.446Z,51.31
2023-04-26T06:24:23.380Z,45.54
2023-04-26T06:25:23.532Z,39.84
2023-04-26T06:26:23.356Z,38.06
2023-04-26T06:27:23.365Z,37.45
2023-04-26T06:28:23.346Z,41.13
2023-04-26T06:29:23.401Z,44.76
2023-04-26T06:30:23.579Z,50.73
2023-04-26T06:31:23.390Z,48.23
2023-04-26T06:32:23.372Z,38.49
2023-04-26T06:33:23.303Z,35.83
2023-04-26T06:34:23.477Z,43.55
2023-04-26T06:35:23.537Z,56.09
2023-04-26T06:36:23.349Z,67.96
2023-04-26T06:37:23.392Z,51.37
2023-04-26T06:38:23.459Z,36.69
2023-04-26T06:39:23.476Z,29.95
2023-04-26T06:40:24.033Z,24.17
2023-04-26T06:41:23.621Z,20.78
2023-04-26T06:42:23.788Z,18.11
2023-04-26T06:43:23.838Z,15.92
2023-04-26T06:44:23.776Z,16.58
2023-04-26T06:45:24.011Z,17.41
2023-04-26T06:46:23.954Z,16.17
2023-04-26T06:47:23.918Z,17.21
2023-04-26T06:48:23.942Z,15.72
2023-04-26T06:49:23.957Z,11.58
2023-04-26T06:50:24.154Z,7.86
2023-04-26T06:51:24.111Z,4.95
2023-04-26T06:52:24.203Z,3.63
2023-04-26T06:53:24.249Z,2.66
2023-04-26T06:54:24.309Z,2.22
2023-04-26T06:55:24.354Z,1.99
2023-04-26T06:56:24.406Z,1.87
2023-04-26T06:57:24.556Z,1.96
2023-04-26T06:58:24.523Z,2.05
2023-04-26T06:59:24.608Z,1.37
2023-04-26T07:00:24.683Z,1.22
2023-04-26T07:01:24.712Z,1.08
2023-04-26T07:02:24.985Z,0.94
2023-04-26T07:03:25.027Z,1.00
2023-04-26T07:04:25.076Z,0.96
2023-04-26T07:05:24.902Z,0.89
2023-04-26T07:06:24.936Z,0.73
2023-04-26T07:07:24.971Z,0.59
2023-04-26T07:08:25.037Z,0.50
2023-04-26T07:09:25.423Z,0.51
2023-04-26T07:10:25.137Z,0.50
2023-04-26T07:11:26.333Z,0.58
2023-04-26T07:12:25.198Z,0.67
2023-04-26T07:13:25.234Z,0.63
2023-04-26T07:14:25.276Z,0.57
2023-04-26T07:15:25.320Z,0.50
2023-04-26T07:16:25.352Z,0.48
2023-04-26T07:17:25.341Z,0.38
2023-04-26T07:18:25.362Z,0.34
2023-04-26T07:19:25.358Z,0.34
2023-04-26T07:20:25.632Z,0.34
2023-04-26T07:21:25.420Z,0.34
2023-04-26T07:22:25.481Z,0.40
2023-04-26T07:23:25.439Z,0.51
2023-04-26T07:24:25.455Z,0.55
2023-04-26T07:25:26.437Z,0.50
2023-04-26T07:26:25.675Z,0.59
2023-04-26T07:27:25.484Z,0.76
2023-04-26T07:28:25.541Z,0.93
2023-04-26T07:29:25.550Z,0.90
2023-04-26T07:30:26.160Z,0.84
2023-04-26T07:31:25.574Z,0.58
2023-04-26T07:32:25.696Z,0.50
2023-04-26T07:33:25.760Z,0.47
2023-04-26T07:34:25.589Z,0.45
2023-04-26T07:35:26.051Z,0.50
2023-04-26T07:36:25.612Z,0.52
2023-04-26T07:37:25.576Z,0.50
2023-04-26T07:38:25.594Z,0.55
2023-04-26T07:39:25.627Z,0.68
2023-04-26T07:40:26.037Z,0.91
2023-04-26T07:41:25.624Z,1.22
2023-04-26T07:42:25.674Z,0.90
2023-04-26T07:43:25.603Z,0.88
2023-04-26T07:44:25.603Z,0.92
2023-04-26T07:45:25.637Z,0.63
2023-04-26T07:46:25.674Z,0.49
2023-04-26T07:47:25.659Z,0.53
2023-04-26T07:48:25.655Z,0.69
2023-04-26T07:49:25.636Z,0.90
2023-04-26T07:50:26.043Z,0.83
2023-04-26T07:51:25.690Z,0.86
2023-04-26T07:52:25.687Z,0.91
2023-04-26T07:53:25.719Z,0.77
2023-04-26T07:54:25.756Z,0.78
2023-04-26T07:55:26.025Z,0.96
2023-04-26T07:56:25.853Z,0.95
2023-04-26T07:57:26.567Z,0.87
2023-04-26T07:58:25.986Z,0.52
2023-04-26T07:59:26.036Z,0.34
2023-04-26T08:00:26.535Z,0.34
2023-04-26T08:01:26.179Z,0.34
2023-04-26T08:02:37.325Z,0.36
2023-04-26T08:03:27.364Z,0.36
2023-04-26T08:04:26.348Z,0.35
2023-04-26T08:05:26.465Z,0.36
2023-04-26T08:06:26.191Z,0.38
2023-04-26T08:07:26.158Z,0.47
2023-04-26T08:08:26.161Z,0.68
2023-04-26T08:09:26.176Z,0.81
2023-04-26T08:10:26.163Z,0.71
2023-04-26T08:11:26.187Z,0.65
2023-04-26T08:12:26.203Z,0.47
2023-04-26T08:13:29.179Z,0.36
2023-04-26T08:14:26.255Z,0.34
2023-04-26T08:15:26.527Z,0.34
2023-04-26T08:16:26.265Z,0.34
2023-04-26T08:17:26.237Z,0.34
2023-04-26T08:18:26.217Z,0.46
2023-04-26T08:19:26.208Z,0.59
2023-04-26T08:20:26.247Z,0.73
2023-04-26T08:21:26.168Z,0.98
2023-04-26T08:22:26.219Z,1.39
2023-04-26T08:23:26.203Z,1.86
2023-04-26T08:24:26.216Z,2.56
2023-04-26T08:25:26.172Z,3.79
2023-04-26T08:26:26.145Z,6.52
2023-04-26T08:27:26.144Z,8.98
2023-04-26T08:28:26.169Z,9.76
2023-04-26T08:29:26.194Z,4.44
2023-04-26T08:30:26.132Z,3.08
2023-04-26T08:31:26.166Z,3.45
2023-04-26T08:32:26.215Z,2.46
2023-04-26T08:33:26.208Z,3.02
2023-04-26T08:34:26.100Z,7.34
2023-04-26T08:35:26.057Z,14.62
2023-04-26T08:36:26.077Z,11.27
2023-04-26T08:37:26.993Z,8.94
2023-04-26T08:38:26.068Z,6.18
2023-04-26T08:39:26.058Z,4.16
2023-04-26T08:40:26.552Z,2.76
2023-04-26T08:41:26.043Z,2.11
2023-04-26T08:42:26.042Z,2.14
2023-04-26T08:43:26.035Z,4.03
2023-04-26T08:44:26.020Z,4.10
2023-04-26T08:45:26.036Z,4.42
2023-04-26T08:46:26.057Z,3.67
2023-04-26T08:47:26.020Z,3.93
2023-04-26T08:48:25.998Z,4.32
2023-04-26T08:49:25.980Z,3.62
2023-04-26T08:50:26.066Z,3.10
2023-04-26T08:51:25.990Z,2.95
2023-04-26T08:52:25.965Z,2.53
2023-04-26T08:53:25.949Z,2.73
2023-04-26T08:54:25.994Z,3.22
2023-04-26T08:55:25.965Z,2.96
2023-04-26T08:56:25.935Z,2.13
2023-04-26T08:57:25.937Z,1.86
2023-04-26T08:58:25.907Z,1.56
2023-04-26T08:59:25.904Z,1.37
2023-04-26T09:00:25.968Z,0.78
2023-04-26T09:01:26.194Z,0.49
2023-04-26T09:02:26.021Z,0.54
2023-04-26T09:03:26.032Z,0.66
2023-04-26T09:04:26.021Z,0.77
2023-04-26T09:05:25.902Z,0.55
2023-04-26T09:06:25.846Z,0.46
2023-04-26T09:07:25.845Z,0.55
2023-04-26T09:08:25.885Z,0.52
2023-04-26T09:09:27.380Z,0.50
2023-04-26T09:10:25.825Z,0.44
2023-04-26T09:11:25.813Z,0.48
2023-04-26T09:12:25.807Z,0.52
2023-04-26T09:13:25.792Z,0.52
2023-04-26T09:14:25.799Z,0.34
2023-04-26T09:15:25.795Z,0.34
2023-04-26T09:16:26.137Z,0.34
2023-04-26T09:17:25.809Z,0.34
2023-04-26T09:18:25.771Z,0.34
2023-04-26T09:19:25.752Z,0.34
2023-04-26T09:20:25.784Z,0.34
2023-04-26T09:21:26.065Z,0.34
2023-04-26T09:22:25.719Z,0.34
2023-04-26T09:23:25.730Z,0.34
2023-04-26T09:24:25.711Z,0.34
2023-04-26T09:25:25.737Z,0.34
2023-04-26T09:26:26.063Z,0.34
2023-04-26T09:27:25.709Z,0.34
2023-04-26T09:28:25.688Z,0.34
2023-04-26T09:29:25.695Z,0.34
2023-04-26T09:30:25.689Z,0.34
2023-04-26T09:31:26.093Z,0.34
2023-04-26T09:32:25.661Z,0.34
2023-04-26T09:33:25.805Z,0.34
2023-04-26T09:34:25.680Z,0.34
2023-04-26T09:35:25.669Z,0.34
2023-04-26T09:36:25.663Z,0.34
2023-04-26T09:37:25.633Z,0.34
2023-04-26T09:38:25.644Z,0.34
2023-04-26T09:39:25.633Z,0.34
2023-04-26T09:40:25.616Z,0.34
2023-04-26T09:41:26.060Z,0.34
2023-04-26T09:42:25.600Z,0.34
2023-04-26T09:43:25.597Z,0.42
2023-04-26T09:44:25.607Z,0.57
2023-04-26T09:45:25.585Z,0.66
2023-04-26T09:46:25.703Z,0.55
2023-04-26T09:47:25.601Z,0.50
2023-04-26T09:48:25.562Z,0.50
2023-04-26T09:49:25.552Z,0.46
2023-04-26T09:50:25.596Z,0.50
2023-04-26T09:51:26.066Z,0.53
2023-04-26T09:52:25.722Z,39.21
2023-04-26T09:53:25.513Z,64.85
2023-04-26T09:54:25.557Z,9.80
2023-04-26T09:55:34.908Z,2.16
2023-04-26T09:56:26.559Z,1.24
2023-04-26T09:57:25.528Z,0.86
2023-04-26T09:58:25.484Z,0.89
2023-04-26T09:59:25.491Z,0.87
2023-04-26T10:00:25.486Z,0.73
2023-04-26T10:01:25.525Z,0.55
2023-04-26T10:02:25.567Z,0.50
2023-04-26T10:03:25.611Z,0.49
2023-04-26T10:04:25.564Z,0.50
2023-04-26T10:05:25.420Z,0.50
2023-04-26T10:06:25.448Z,0.51
2023-04-26T10:07:25.470Z,0.51
2023-04-26T10:08:25.473Z,0.55
2023-04-26T10:09:25.389Z,0.69
2023-04-26T10:10:25.412Z,0.72
2023-04-26T10:11:25.430Z,0.76
2023-04-26T10:12:25.390Z,0.70
2023-04-26T10:13:25.389Z,0.66
2023-04-26T10:14:25.344Z,0.75
2023-04-26T10:15:25.397Z,1.11
2023-04-26T10:16:25.398Z,1.64
2023-04-26T10:17:25.361Z,1.24
2023-04-26T10:18:25.360Z,1.01
2023-04-26T10:19:25.357Z,0.93
2023-04-26T10:20:25.377Z,0.83
2023-04-26T10:21:25.588Z,0.69
2023-04-26T10:22:25.418Z,0.62
2023-04-26T10:23:25.370Z,0.54
2023-04-26T10:24:25.402Z,0.55
2023-04-26T10:25:25.447Z,0.57
2023-04-26T10:26:25.700Z,0.67
2023-04-26T10:27:25.446Z,0.82
2023-04-26T10:28:25.483Z,0.92
2023-04-26T10:29:25.531Z,1.14
2023-04-26T10:30:25.477Z,1.09
2023-04-26T10:31:25.675Z,1.02
2023-04-26T10:32:25.517Z,0.78
2023-04-26T10:33:25.546Z,0.73
2023-04-26T10:34:25.554Z,1.09
2023-04-26T10:35:25.564Z,1.01
2023-04-26T10:36:26.078Z,0.95
2023-04-26T10:37:25.613Z,1.08
2023-04-26T10:38:25.594Z,1.33
2023-04-26T10:39:25.614Z,1.99
2023-04-26T10:40:25.616Z,3.28
2023-04-26T10:41:26.089Z,5.85
2023-04-26T10:42:26.378Z,3.89
2023-04-26T10:43:26.186Z,2.49
2023-04-26T10:44:25.704Z,1.93
2023-04-26T10:45:25.712Z,1.57
2023-04-26T10:46:25.786Z,1.36
2023-04-26T10:47:26.011Z,1.22
2023-04-26T10:48:25.791Z,1.07
2023-04-26T10:49:26.744Z,1.18
2023-04-26T10:50:25.801Z,1.65
2023-04-26T10:51:25.819Z,2.02
2023-04-26T10:52:25.845Z,1.48
2023-04-26T10:53:25.888Z,1.38
2023-04-26T10:54:25.954Z,1.52
2023-04-26T10:55:26.045Z,1.61
2023-04-26T10:56:26.061Z,2.10
2023-04-26T10:57:26.053Z,2.69
2023-04-26T10:58:26.103Z,2.56
2023-04-26T11:00:27.846Z,1.81
2023-04-26T11:01:26.166Z,1.84
2023-04-26T11:02:26.207Z,1.96
2023-04-26T11:03:26.218Z,2.30
2023-04-26T11:04:26.220Z,3.03
2023-04-26T11:05:26.112Z,4.72
2023-04-26T11:06:26.131Z,4.27
2023-04-26T11:07:26.121Z,2.68
2023-04-26T11:08:26.128Z,2.17
2023-04-26T11:09:26.112Z,1.43
2023-04-26T11:10:26.088Z,1.35
2023-04-26T11:11:26.095Z,2.39
2023-04-26T11:12:26.099Z,1.91
2023-04-26T11:13:26.246Z,1.57
2023-04-26T11:14:26.268Z,1.74
2023-04-26T11:15:26.077Z,1.94
2023-04-26T11:16:27.630Z,3.35
2023-04-26T11:17:26.706Z,3.37
2023-04-26T11:18:26.041Z,3.37
2023-04-26T11:19:26.017Z,2.46
2023-04-26T11:20:26.007Z,1.51
2023-04-26T11:21:26.070Z,1.18
2023-04-26T11:22:26.009Z,1.09
2023-04-26T11:23:25.989Z,0.74
2023-04-26T11:24:25.996Z,0.61
2023-04-26T11:25:25.991Z,0.58
2023-04-26T11:26:25.994Z,0.62
2023-04-26T11:27:25.954Z,0.58
2023-04-26T11:28:25.971Z,0.50
2023-04-26T11:29:25.988Z,0.46
2023-04-26T11:30:26.059Z,0.48
2023-04-26T11:31:26.141Z,0.47
2023-04-26T11:32:26.166Z,0.45
2023-04-26T11:33:26.173Z,1.06
2023-04-26T11:34:26.226Z,1.41
2023-04-26T11:35:26.247Z,1.22
2023-04-26T11:36:26.298Z,0.79
2023-04-26T11:37:26.321Z,0.50
2023-04-26T11:38:26.357Z,0.45
2023-04-26T11:39:26.399Z,0.52
2023-04-26T11:40:26.457Z,0.72
2023-04-26T11:41:26.511Z,0.94
2023-04-26T11:42:26.500Z,0.97
2023-04-26T11:43:26.560Z,1.06
2023-04-26T11:44:26.566Z,1.05
2023-04-26T11:45:26.573Z,1.01
2023-04-26T11:46:26.725Z,0.88
2023-04-26T11:47:26.659Z,0.76
2023-04-26T11:48:26.882Z,0.77
2023-04-26T11:49:26.696Z,0.64
2023-04-26T11:50:26.768Z,0.64
2023-04-26T11:51:26.745Z,0.59
2023-04-26T11:52:26.783Z,0.70
2023-04-26T11:53:26.752Z,0.62
2023-04-26T11:54:26.768Z,0.50
2023-04-26T11:55:26.786Z,0.59
2023-04-26T11:56:26.814Z,0.49
2023-04-26T11:57:26.772Z,0.49
2023-04-26T11:58:26.780Z,0.44
2023-04-26T11:59:26.797Z,0.48
2023-04-26T12:00:26.842Z,0.42
2023-04-26T12:01:26.868Z,0.64
2023-04-26T12:02:26.951Z,0.63
2023-04-26T12:03:27.019Z,0.63
2023-04-26T12:04:29.820Z,0.65
2023-04-26T12:06:26.854Z,0.43
2023-04-26T12:07:26.855Z,0.48
2023-04-26T12:08:26.855Z,0.62
2023-04-26T12:09:26.849Z,1.05
2023-04-26T12:10:26.835Z,1.27
2023-04-26T12:11:26.838Z,1.05
2023-04-26T12:12:26.832Z,1.02
2023-04-26T12:13:26.819Z,0.90
2023-04-26T12:14:26.800Z,0.74
2023-04-26T12:15:26.810Z,0.79
2023-04-26T12:16:27.422Z,0.99
2023-04-26T12:17:27.012Z,0.88
2023-04-26T12:18:26.867Z,0.89
2023-04-26T12:19:26.771Z,0.87
2023-04-26T12:20:26.769Z,0.91
2023-04-26T12:21:28.251Z,1.00
2023-04-26T12:22:26.774Z,1.01
2023-04-26T12:23:26.729Z,1.04
2023-04-26T12:24:26.734Z,1.09
2023-04-26T12:25:26.724Z,0.93
2023-04-26T12:26:26.725Z,0.82
2023-04-26T12:27:26.723Z,0.95
2023-04-26T12:28:26.740Z,1.15
2023-04-26T12:29:26.795Z,1.06
2023-04-26T12:30:26.739Z,0.93
2023-04-26T12:31:26.751Z,0.98
2023-04-26T12:32:26.670Z,0.92
2023-04-26T12:33:26.720Z,0.57
2023-04-26T12:34:26.678Z,0.49
2023-04-26T12:35:26.649Z,0.51
2023-04-26T12:36:26.651Z,0.50
2023-04-26T12:37:26.652Z,0.49
2023-04-26T12:38:26.658Z,0.53
2023-04-26T12:39:26.639Z,0.60
2023-04-26T12:40:26.646Z,0.76
2023-04-26T12:41:26.641Z,0.98
2023-04-26T12:42:26.598Z,1.39
2023-04-26T12:43:26.596Z,1.96
2023-04-26T12:44:26.581Z,2.08
2023-04-26T12:45:26.597Z,1.65
2023-04-26T12:46:26.663Z,1.42
2023-04-26T12:47:26.626Z,1.61
2023-04-26T12:48:26.575Z,2.29
2023-04-26T12:49:26.561Z,3.87
2023-04-26T12:50:26.583Z,5.79
2023-04-26T12:51:26.614Z,6.27
2023-04-26T12:52:26.534Z,5.75
2023-04-26T12:53:26.558Z,4.75
2023-04-26T12:54:26.519Z,4.31
2023-04-26T12:55:26.531Z,3.33
2023-04-26T12:56:26.642Z,3.90
2023-04-26T12:57:26.506Z,3.96
2023-04-26T12:58:26.523Z,3.93
2023-04-26T12:59:26.523Z,4.67
2023-04-26T13:00:26.555Z,4.05
2023-04-26T13:01:26.692Z,3.42
2023-04-26T13:02:26.598Z,3.10
2023-04-26T13:03:26.636Z,2.13
2023-04-26T13:04:26.599Z,1.68
2023-04-26T13:05:26.460Z,1.63
2023-04-26T13:06:26.441Z,2.58
2023-04-26T13:07:26.446Z,3.29
2023-04-26T13:08:26.422Z,2.90
2023-04-26T13:09:26.420Z,2.34
2023-04-26T13:10:26.415Z,1.65
2023-04-26T13:11:26.442Z,1.92
2023-04-26T13:12:26.426Z,2.26
2023-04-26T13:13:35.884Z,2.97
2023-04-26T13:14:27.390Z,2.87
2023-04-26T13:15:26.407Z,2.18
2023-04-26T13:16:26.436Z,1.88
2023-04-26T13:17:26.414Z,1.99
2023-04-26T13:18:26.373Z,2.01
2023-04-26T13:19:26.373Z,1.79
2023-04-26T13:20:28.289Z,1.94
2023-04-26T13:21:26.615Z,2.15
2023-04-26T13:22:26.361Z,2.40
2023-04-26T13:23:26.374Z,2.94
2023-04-26T13:24:26.360Z,2.40
2023-04-26T13:25:26.315Z,1.85
2023-04-26T13:26:27.860Z,2.22
2023-04-26T13:27:27.403Z,2.12
2023-04-26T13:28:26.310Z,2.44
2023-04-26T13:29:26.309Z,2.02
2023-04-26T13:30:26.323Z,1.37
2023-04-26T13:31:26.701Z,1.41
2023-04-26T13:32:26.360Z,1.69
2023-04-26T13:33:26.280Z,1.57
2023-04-26T13:34:26.328Z,1.55
2023-04-26T13:35:26.378Z,1.58
2023-04-26T13:36:26.436Z,1.36
2023-04-26T13:37:26.513Z,1.11
2023-04-26T13:38:26.974Z,0.92
2023-04-26T13:39:26.610Z,0.76
2023-04-26T13:40:26.664Z,0.93